sensor_id;sensor_type;location;lat;lon;timestamp;temperature;humidity
68139;DHT22;54940;50.842;4.410;2023-03-03T00:00:10;3.60;99.90
68139;DHT22;54940;50.842;4.410;2023-03-03T00:02:36;3.60;99.90
68139;DHT22;54940;50.842;4.410;2023-03-03T00:05:02;3.70;99.90
68139;DHT22;54940;50.842;4.410;2023-03-03T00:07:28;3.60;99.90
68139;DHT22;54940;50.842;4.410;2023-03-03T00:09:53;3.50;99.90
68139;DHT22;54940;50.842;4.410;2023-03-03T00:12:25;3.30;99.90
68139;DHT22;54940;50.842;4.410;2023-03-03T00:14:51;3.20;99.90
68139;DHT22;54940;50.842;4.410;2023-03-03T00:17:22;3.30;99.90
68139;DHT22;54940;50.842;4.410;2023-03-03T00:19:49;3.30;99.90
68139;DHT22;54940;50.842;4.410;2023-03-03T00:22:35;3.20;99.90
68139;DHT22;54940;50.842;4.410;2023-03-03T00:27:46;3.40;99.90
68139;DHT22;54940;50.842;4.410;2023-03-03T00:30:22;3.30;99.90
68139;DHT22;54940;50.842;4.410;2023-03-03T00:32:49;3.30;99.90
68139;DHT22;54940;50.842;4.410;2023-03-03T00:35:26;3.30;99.90
68139;DHT22;54940;50.842;4.410;2023-03-03T00:37:59;3.20;99.90
68139;DHT22;54940;50.842;4.410;2023-03-03T00:40:37;3.10;99.90
68139;DHT22;54940;50.842;4.410;2023-03-03T00:43:24;3.10;99.90
68139;DHT22;54940;50.842;4.410;2023-03-03T00:45:56;3.00;99.90
68139;DHT22;54940;50.842;4.410;2023-03-03T00:51:07;2.70;99.90
68139;DHT22;54940;50.842;4.410;2023-03-03T00:53:34;2.90;99.90
68139;DHT22;54940;50.842;4.410;2023-03-03T00:55:59;2.90;99.90
68139;DHT22;54940;50.842;4.410;2023-03-03T00:58:25;2.90;99.90
68139;DHT22;54940;50.842;4.410;2023-03-03T01:00:53;2.80;99.90
68139;DHT22;54940;50.842;4.410;2023-03-03T01:03:23;2.80;99.90
68139;DHT22;54940;50.842;4.410;2023-03-03T01:05:50;3.00;99.90
68139;DHT22;54940;50.842;4.410;2023-03-03T01:08:16;3.00;99.90
68139;DHT22;54940;50.842;4.410;2023-03-03T01:10:47;3.00;99.90
68139;DHT22;54940;50.842;4.410;2023-03-03T01:13:17;3.10;99.90
68139;DHT22;54940;50.842;4.410;2023-03-03T01:15:43;3.10;99.90
68139;DHT22;54940;50.842;4.410;2023-03-03T01:18:10;3.20;99.90
68139;DHT22;54940;50.842;4.410;2023-03-03T01:20:36;3.00;99.90
68139;DHT22;54940;50.842;4.410;2023-03-03T01:23:02;3.10;99.90
68139;DHT22;54940;50.842;4.410;2023-03-03T01:25:28;3.00;99.90
68139;DHT22;54940;50.842;4.410;2023-03-03T01:27:54;3.00;99.90
68139;DHT22;54940;50.842;4.410;2023-03-03T01:30:20;3.10;99.90
68139;DHT22;54940;50.842;4.410;2023-03-03T01:32:46;3.00;99.90
68139;DHT22;54940;50.842;4.410;2023-03-03T01:35:12;3.00;99.90
68139;DHT22;54940;50.842;4.410;2023-03-03T01:37:37;3.10;99.90
68139;DHT22;54940;50.842;4.410;2023-03-03T01:40:11;2.90;99.90
68139;DHT22;54940;50.842;4.410;2023-03-03T01:42:37;2.90;99.90
68139;DHT22;54940;50.842;4.410;2023-03-03T01:50:20;2.90;99.90
68139;DHT22;54940;50.842;4.410;2023-03-03T01:52:52;3.00;99.90
68139;DHT22;54940;50.842;4.410;2023-03-03T01:55:25;3.00;99.90
68139;DHT22;54940;50.842;4.410;2023-03-03T01:57:58;3.00;99.90
68139;DHT22;54940;50.842;4.410;2023-03-03T02:00:26;2.90;99.90
68139;DHT22;54940;50.842;4.410;2023-03-03T02:02:54;2.90;99.90
68139;DHT22;54940;50.842;4.410;2023-03-03T02:05:20;2.90;99.90
68139;DHT22;54940;50.842;4.410;2023-03-03T02:07:46;2.90;99.90
68139;DHT22;54940;50.842;4.410;2023-03-03T02:10:14;2.80;99.90
68139;DHT22;54940;50.842;4.410;2023-03-03T02:12:44;2.80;99.90
68139;DHT22;54940;50.842;4.410;2023-03-03T02:15:29;2.80;99.90
68139;DHT22;54940;50.842;4.410;2023-03-03T02:17:58;2.80;99.90
68139;DHT22;54940;50.842;4.410;2023-03-03T02:20:42;2.60;99.90
68139;DHT22;54940;50.842;4.410;2023-03-03T02:28:20;2.70;99.90
68139;DHT22;54940;50.842;4.410;2023-03-03T02:30:46;2.70;99.90
68139;DHT22;54940;50.842;4.410;2023-03-03T02:33:12;2.70;99.90
68139;DHT22;54940;50.842;4.410;2023-03-03T02:35:38;2.60;99.90
68139;DHT22;54940;50.842;4.410;2023-03-03T02:40:52;2.60;99.90
68139;DHT22;54940;50.842;4.410;2023-03-03T02:43:23;2.60;99.90
68139;DHT22;54940;50.842;4.410;2023-03-03T02:45:53;2.70;99.90
68139;DHT22;54940;50.842;4.410;2023-03-03T02:48:19;2.80;99.90
68139;DHT22;54940;50.842;4.410;2023-03-03T02:50:44;2.90;99.90
68139;DHT22;54940;50.842;4.410;2023-03-03T02:53:10;2.80;99.90
68139;DHT22;54940;50.842;4.410;2023-03-03T02:55:36;2.60;99.90
68139;DHT22;54940;50.842;4.410;2023-03-03T02:58:01;2.70;99.90
68139;DHT22;54940;50.842;4.410;2023-03-03T03:00:27;2.60;99.90
68139;DHT22;54940;50.842;4.410;2023-03-03T03:02:53;2.70;99.90
68139;DHT22;54940;50.842;4.410;2023-03-03T03:05:18;2.50;99.90
68139;DHT22;54940;50.842;4.410;2023-03-03T03:07:44;2.50;99.90
68139;DHT22;54940;50.842;4.410;2023-03-03T03:10:10;2.30;99.90
68139;DHT22;54940;50.842;4.410;2023-03-03T03:12:35;2.30;99.90
68139;DHT22;54940;50.842;4.410;2023-03-03T03:15:01;2.30;99.90
68139;DHT22;54940;50.842;4.410;2023-03-03T03:17:27;2.30;99.90
68139;DHT22;54940;50.842;4.410;2023-03-03T03:19:53;2.20;99.90
68139;DHT22;54940;50.842;4.410;2023-03-03T03:22:18;2.40;99.90
68139;DHT22;54940;50.842;4.410;2023-03-03T03:24:44;2.50;99.90
68139;DHT22;54940;50.842;4.410;2023-03-03T03:27:09;2.50;99.90
68139;DHT22;54940;50.842;4.410;2023-03-03T03:29:35;2.50;99.90
68139;DHT22;54940;50.842;4.410;2023-03-03T03:32:01;2.50;99.90
68139;DHT22;54940;50.842;4.410;2023-03-03T03:34:26;2.50;99.90
68139;DHT22;54940;50.842;4.410;2023-03-03T03:36:52;2.50;99.90
68139;DHT22;54940;50.842;4.410;2023-03-03T03:39:18;2.30;99.90
68139;DHT22;54940;50.842;4.410;2023-03-03T03:41:43;2.30;99.90
68139;DHT22;54940;50.842;4.410;2023-03-03T03:44:09;2.30;99.90
68139;DHT22;54940;50.842;4.410;2023-03-03T03:46:34;2.30;99.90
68139;DHT22;54940;50.842;4.410;2023-03-03T03:49:00;2.30;99.90
68139;DHT22;54940;50.842;4.410;2023-03-03T03:51:26;2.40;99.90
68139;DHT22;54940;50.842;4.410;2023-03-03T03:53:51;2.40;99.90
68139;DHT22;54940;50.842;4.410;2023-03-03T03:56:17;2.60;99.90
68139;DHT22;54940;50.842;4.410;2023-03-03T03:58:43;2.40;99.90
68139;DHT22;54940;50.842;4.410;2023-03-03T04:01:08;2.50;99.90
68139;DHT22;54940;50.842;4.410;2023-03-03T04:03:34;2.40;99.90
68139;DHT22;54940;50.842;4.410;2023-03-03T04:06:00;2.40;99.90
68139;DHT22;54940;50.842;4.410;2023-03-03T04:08:26;2.40;99.90
68139;DHT22;54940;50.842;4.410;2023-03-03T04:10:51;2.50;99.90
68139;DHT22;54940;50.842;4.410;2023-03-03T04:13:17;2.30;99.90
68139;DHT22;54940;50.842;4.410;2023-03-03T04:15:43;2.40;99.90
68139;DHT22;54940;50.842;4.410;2023-03-03T04:18:08;2.30;99.90
68139;DHT22;54940;50.842;4.410;2023-03-03T04:20:34;2.20;99.90
68139;DHT22;54940;50.842;4.410;2023-03-03T04:23:00;2.20;99.90
68139;DHT22;54940;50.842;4.410;2023-03-03T04:25:25;2.20;99.90
68139;DHT22;54940;50.842;4.410;2023-03-03T04:27:51;2.20;99.90
68139;DHT22;54940;50.842;4.410;2023-03-03T04:30:18;2.20;99.90
68139;DHT22;54940;50.842;4.410;2023-03-03T04:32:43;2.20;99.90
68139;DHT22;54940;50.842;4.410;2023-03-03T04:35:10;2.00;99.90
68139;DHT22;54940;50.842;4.410;2023-03-03T04:37:36;2.20;99.90
68139;DHT22;54940;50.842;4.410;2023-03-03T04:40:06;2.20;99.90
68139;DHT22;54940;50.842;4.410;2023-03-03T04:42:32;2.20;99.90
68139;DHT22;54940;50.842;4.410;2023-03-03T04:44:58;2.30;99.90
68139;DHT22;54940;50.842;4.410;2023-03-03T04:47:24;2.40;99.90
68139;DHT22;54940;50.842;4.410;2023-03-03T04:49:49;2.40;99.90
68139;DHT22;54940;50.842;4.410;2023-03-03T04:52:15;2.40;99.90
68139;DHT22;54940;50.842;4.410;2023-03-03T04:54:40;2.40;99.90
68139;DHT22;54940;50.842;4.410;2023-03-03T04:57:06;2.40;99.90
68139;DHT22;54940;50.842;4.410;2023-03-03T04:59:34;2.40;99.90
68139;DHT22;54940;50.842;4.410;2023-03-03T05:02:00;2.30;99.90
68139;DHT22;54940;50.842;4.410;2023-03-03T05:04:25;2.40;99.90
68139;DHT22;54940;50.842;4.410;2023-03-03T05:06:51;2.40;99.90
68139;DHT22;54940;50.842;4.410;2023-03-03T05:09:16;2.40;99.90
68139;DHT22;54940;50.842;4.410;2023-03-03T05:11:42;2.40;99.90
68139;DHT22;54940;50.842;4.410;2023-03-03T05:14:08;2.30;99.90
68139;DHT22;54940;50.842;4.410;2023-03-03T05:16:33;2.20;99.90
68139;DHT22;54940;50.842;4.410;2023-03-03T05:18:59;2.10;99.90
68139;DHT22;54940;50.842;4.410;2023-03-03T05:21:25;2.10;99.90
68139;DHT22;54940;50.842;4.410;2023-03-03T05:23:50;2.00;99.90
68139;DHT22;54940;50.842;4.410;2023-03-03T05:26:17;2.10;99.90
68139;DHT22;54940;50.842;4.410;2023-03-03T05:28:42;2.10;99.90
68139;DHT22;54940;50.842;4.410;2023-03-03T05:31:08;2.10;99.90
68139;DHT22;54940;50.842;4.410;2023-03-03T05:33:34;2.20;99.90
68139;DHT22;54940;50.842;4.410;2023-03-03T05:36:00;2.10;99.90
68139;DHT22;54940;50.842;4.410;2023-03-03T05:38:25;2.00;99.90
68139;DHT22;54940;50.842;4.410;2023-03-03T05:40:51;2.00;99.90
68139;DHT22;54940;50.842;4.410;2023-03-03T05:43:17;2.00;99.90
68139;DHT22;54940;50.842;4.410;2023-03-03T05:45:42;2.20;99.90
68139;DHT22;54940;50.842;4.410;2023-03-03T05:48:08;2.20;99.90
68139;DHT22;54940;50.842;4.410;2023-03-03T05:50:36;2.20;99.90
68139;DHT22;54940;50.842;4.410;2023-03-03T05:53:02;2.20;99.90
68139;DHT22;54940;50.842;4.410;2023-03-03T05:55:28;2.20;99.90
68139;DHT22;54940;50.842;4.410;2023-03-03T05:57:54;2.30;99.90
68139;DHT22;54940;50.842;4.410;2023-03-03T06:00:20;2.40;99.90
68139;DHT22;54940;50.842;4.410;2023-03-03T06:02:46;2.30;99.90
68139;DHT22;54940;50.842;4.410;2023-03-03T06:05:11;2.20;99.90
68139;DHT22;54940;50.842;4.410;2023-03-03T06:07:40;2.10;99.90
68139;DHT22;54940;50.842;4.410;2023-03-03T06:10:06;2.30;99.90
68139;DHT22;54940;50.842;4.410;2023-03-03T06:12:31;2.30;99.90
68139;DHT22;54940;50.842;4.410;2023-03-03T06:14:57;2.00;99.90
68139;DHT22;54940;50.842;4.410;2023-03-03T06:17:23;2.00;99.90
68139;DHT22;54940;50.842;4.410;2023-03-03T06:19:49;1.90;99.90
68139;DHT22;54940;50.842;4.410;2023-03-03T06:22:14;1.80;99.90
68139;DHT22;54940;50.842;4.410;2023-03-03T06:24:40;1.80;99.90
68139;DHT22;54940;50.842;4.410;2023-03-03T06:27:06;1.80;99.90
68139;DHT22;54940;50.842;4.410;2023-03-03T06:29:32;1.70;99.90
68139;DHT22;54940;50.842;4.410;2023-03-03T06:31:57;1.70;99.90
68139;DHT22;54940;50.842;4.410;2023-03-03T06:34:23;1.70;99.90
68139;DHT22;54940;50.842;4.410;2023-03-03T06:36:49;1.70;99.90
68139;DHT22;54940;50.842;4.410;2023-03-03T06:39:14;1.80;99.90
68139;DHT22;54940;50.842;4.410;2023-03-03T06:41:40;1.90;99.90
68139;DHT22;54940;50.842;4.410;2023-03-03T06:44:05;1.90;99.90
68139;DHT22;54940;50.842;4.410;2023-03-03T06:46:31;1.70;99.90
68139;DHT22;54940;50.842;4.410;2023-03-03T06:48:57;1.80;99.90
68139;DHT22;54940;50.842;4.410;2023-03-03T06:51:30;1.90;99.90
68139;DHT22;54940;50.842;4.410;2023-03-03T06:53:59;1.90;99.90
68139;DHT22;54940;50.842;4.410;2023-03-03T06:56:26;1.90;99.90
68139;DHT22;54940;50.842;4.410;2023-03-03T06:59:04;1.90;99.90
68139;DHT22;54940;50.842;4.410;2023-03-03T07:01:36;2.00;99.90
68139;DHT22;54940;50.842;4.410;2023-03-03T07:06:46;2.10;99.90
68139;DHT22;54940;50.842;4.410;2023-03-03T07:09:21;2.10;99.90
68139;DHT22;54940;50.842;4.410;2023-03-03T07:11:46;1.90;99.90
68139;DHT22;54940;50.842;4.410;2023-03-03T07:14:15;2.00;99.90
68139;DHT22;54940;50.842;4.410;2023-03-03T07:16:42;2.00;99.90
68139;DHT22;54940;50.842;4.410;2023-03-03T07:19:22;2.00;99.90
68139;DHT22;54940;50.842;4.410;2023-03-03T07:21:50;2.00;99.90
68139;DHT22;54940;50.842;4.410;2023-03-03T07:24:27;2.00;99.90
68139;DHT22;54940;50.842;4.410;2023-03-03T07:29:29;2.20;99.90
68139;DHT22;54940;50.842;4.410;2023-03-03T07:31:57;2.10;99.90
68139;DHT22;54940;50.842;4.410;2023-03-03T07:34:38;2.20;99.90
68139;DHT22;54940;50.842;4.410;2023-03-03T07:37:34;2.10;99.90
68139;DHT22;54940;50.842;4.410;2023-03-03T07:40:34;2.10;99.90
68139;DHT22;54940;50.842;4.410;2023-03-03T07:46:01;2.10;99.90
68139;DHT22;54940;50.842;4.410;2023-03-03T07:48:35;2.10;99.90
68139;DHT22;54940;50.842;4.410;2023-03-03T07:51:11;2.00;99.90
68139;DHT22;54940;50.842;4.410;2023-03-03T07:53:37;2.10;99.90
68139;DHT22;54940;50.842;4.410;2023-03-03T07:56:32;2.20;99.90
68139;DHT22;54940;50.842;4.410;2023-03-03T07:58:59;2.00;99.90
68139;DHT22;54940;50.842;4.410;2023-03-03T08:03:59;1.90;99.90
68139;DHT22;54940;50.842;4.410;2023-03-03T08:09:03;1.80;99.90
68139;DHT22;54940;50.842;4.410;2023-03-03T08:11:56;1.80;99.90
68139;DHT22;54940;50.842;4.410;2023-03-03T08:14:33;1.90;99.90
68139;DHT22;54940;50.842;4.410;2023-03-03T08:16:59;1.70;99.90
68139;DHT22;54940;50.842;4.410;2023-03-03T08:19:26;1.70;99.90
68139;DHT22;54940;50.842;4.410;2023-03-03T08:22:00;1.70;99.90
68139;DHT22;54940;50.842;4.410;2023-03-03T08:24:26;1.80;99.90
68139;DHT22;54940;50.842;4.410;2023-03-03T08:26:52;1.80;99.90
68139;DHT22;54940;50.842;4.410;2023-03-03T08:29:17;1.80;99.90
68139;DHT22;54940;50.842;4.410;2023-03-03T08:31:43;2.00;99.90
68139;DHT22;54940;50.842;4.410;2023-03-03T08:34:09;1.90;99.90
68139;DHT22;54940;50.842;4.410;2023-03-03T08:36:35;2.00;99.90
68139;DHT22;54940;50.842;4.410;2023-03-03T08:39:01;1.90;99.90
68139;DHT22;54940;50.842;4.410;2023-03-03T08:41:27;2.00;99.90
68139;DHT22;54940;50.842;4.410;2023-03-03T08:43:53;2.10;99.90
68139;DHT22;54940;50.842;4.410;2023-03-03T08:46:18;2.00;99.90
68139;DHT22;54940;50.842;4.410;2023-03-03T08:48:44;1.90;99.90
68139;DHT22;54940;50.842;4.410;2023-03-03T08:51:09;1.90;99.90
68139;DHT22;54940;50.842;4.410;2023-03-03T08:53:35;1.90;99.90
68139;DHT22;54940;50.842;4.410;2023-03-03T08:56:03;1.90;99.90
68139;DHT22;54940;50.842;4.410;2023-03-03T08:58:29;1.90;99.90
68139;DHT22;54940;50.842;4.410;2023-03-03T09:00:55;2.00;99.90
68139;DHT22;54940;50.842;4.410;2023-03-03T09:03:20;2.20;99.90
68139;DHT22;54940;50.842;4.410;2023-03-03T09:05:46;2.20;99.90
68139;DHT22;54940;50.842;4.410;2023-03-03T09:08:12;2.20;99.90
68139;DHT22;54940;50.842;4.410;2023-03-03T09:10:37;2.10;99.90
68139;DHT22;54940;50.842;4.410;2023-03-03T09:13:11;2.20;99.90
68139;DHT22;54940;50.842;4.410;2023-03-03T09:15:38;2.20;99.90
68139;DHT22;54940;50.842;4.410;2023-03-03T09:18:14;2.10;99.90
68139;DHT22;54940;50.842;4.410;2023-03-03T09:20:49;2.10;99.90
68139;DHT22;54940;50.842;4.410;2023-03-03T09:23:36;2.00;99.90
68139;DHT22;54940;50.842;4.410;2023-03-03T09:28:43;2.10;99.90
68139;DHT22;54940;50.842;4.410;2023-03-03T09:31:26;2.30;99.90
68139;DHT22;54940;50.842;4.410;2023-03-03T09:33:52;2.30;99.90
68139;DHT22;54940;50.842;4.410;2023-03-03T09:36:35;2.30;99.90
68139;DHT22;54940;50.842;4.410;2023-03-03T09:39:19;2.20;99.90
68139;DHT22;54940;50.842;4.410;2023-03-03T09:42:13;2.30;99.90
68139;DHT22;54940;50.842;4.410;2023-03-03T09:56:34;2.50;99.90
68139;DHT22;54940;50.842;4.410;2023-03-03T10:18:11;2.50;99.90
68139;DHT22;54940;50.842;4.410;2023-03-03T10:21:03;2.40;99.90
68139;DHT22;54940;50.842;4.410;2023-03-03T10:26:33;2.60;99.90
68139;DHT22;54940;50.842;4.410;2023-03-03T10:29:10;2.70;99.90
68139;DHT22;54940;50.842;4.410;2023-03-03T10:43:22;2.80;99.90
68139;DHT22;54940;50.842;4.410;2023-03-03T10:49:21;3.00;99.90
68139;DHT22;54940;50.842;4.410;2023-03-03T11:03:19;3.10;99.90
68139;DHT22;54940;50.842;4.410;2023-03-03T11:05:56;3.00;99.90
68139;DHT22;54940;50.842;4.410;2023-03-03T11:08:29;3.00;99.90
68139;DHT22;54940;50.842;4.410;2023-03-03T11:19:45;3.20;99.90
68139;DHT22;54940;50.842;4.410;2023-03-03T11:33:09;3.80;99.90
68139;DHT22;54940;50.842;4.410;2023-03-03T11:43:52;3.80;99.90
68139;DHT22;54940;50.842;4.410;2023-03-03T11:51:26;3.90;99.90
68139;DHT22;54940;50.842;4.410;2023-03-03T12:02:19;4.10;99.90
68139;DHT22;54940;50.842;4.410;2023-03-03T12:05:33;4.20;99.90
68139;DHT22;54940;50.842;4.410;2023-03-03T12:07:47;4.30;99.90
68139;DHT22;54940;50.842;4.410;2023-03-03T12:10:39;4.40;99.90
68139;DHT22;54940;50.842;4.410;2023-03-03T12:13:20;4.50;99.90
68139;DHT22;54940;50.842;4.410;2023-03-03T12:19:03;4.50;99.90
68139;DHT22;54940;50.842;4.410;2023-03-03T12:24:36;4.50;99.90
68139;DHT22;54940;50.842;4.410;2023-03-03T12:36:04;4.80;99.90
68139;DHT22;54940;50.842;4.410;2023-03-03T12:38:44;4.90;99.90
68139;DHT22;54940;50.842;4.410;2023-03-03T12:47:00;4.90;99.90
68139;DHT22;54940;50.842;4.410;2023-03-03T12:52:32;5.10;99.90
68139;DHT22;54940;50.842;4.410;2023-03-03T12:55:28;5.20;99.90
68139;DHT22;54940;50.842;4.410;2023-03-03T12:58:08;5.30;99.90
68139;DHT22;54940;50.842;4.410;2023-03-03T13:03:12;5.60;99.90
68139;DHT22;54940;50.842;4.410;2023-03-03T13:05:56;5.70;99.90
68139;DHT22;54940;50.842;4.410;2023-03-03T13:14:51;5.50;99.90
68139;DHT22;54940;50.842;4.410;2023-03-03T13:17:37;5.50;99.90
68139;DHT22;54940;50.842;4.410;2023-03-03T13:20:16;5.60;99.90
68139;DHT22;54940;50.842;4.410;2023-03-03T13:23:03;5.40;99.90
68139;DHT22;54940;50.842;4.410;2023-03-03T13:31:38;5.30;99.90
68139;DHT22;54940;50.842;4.410;2023-03-03T13:34:07;5.40;99.90
68139;DHT22;54940;50.842;4.410;2023-03-03T13:36:43;5.40;99.90
68139;DHT22;54940;50.842;4.410;2023-03-03T13:39:27;5.40;99.90
68139;DHT22;54940;50.842;4.410;2023-03-03T13:44:55;5.60;99.90
68139;DHT22;54940;50.842;4.410;2023-03-03T13:55:29;5.80;99.90
68139;DHT22;54940;50.842;4.410;2023-03-03T13:58:26;5.80;99.90
68139;DHT22;54940;50.842;4.410;2023-03-03T14:01:02;5.80;99.90
68139;DHT22;54940;50.842;4.410;2023-03-03T14:06:20;5.60;99.90
68139;DHT22;54940;50.842;4.410;2023-03-03T14:09:17;5.70;99.90
68139;DHT22;54940;50.842;4.410;2023-03-03T14:16:53;5.70;99.90
68139;DHT22;54940;50.842;4.410;2023-03-03T14:19:33;5.80;99.90
68139;DHT22;54940;50.842;4.410;2023-03-03T14:25:03;5.80;99.90
68139;DHT22;54940;50.842;4.410;2023-03-03T14:28:01;5.80;99.90
68139;DHT22;54940;50.842;4.410;2023-03-03T14:30:32;5.80;99.90
68139;DHT22;54940;50.842;4.410;2023-03-03T14:33:14;5.80;99.90
68139;DHT22;54940;50.842;4.410;2023-03-03T14:38:35;5.70;99.90
68139;DHT22;54940;50.842;4.410;2023-03-03T14:43:37;5.70;99.90
68139;DHT22;54940;50.842;4.410;2023-03-03T14:49:27;5.70;99.90
68139;DHT22;54940;50.842;4.410;2023-03-03T14:52:01;5.70;99.90
68139;DHT22;54940;50.842;4.410;2023-03-03T14:54:36;5.70;99.90
68139;DHT22;54940;50.842;4.410;2023-03-03T14:57:09;5.80;99.90
68139;DHT22;54940;50.842;4.410;2023-03-03T14:59:36;5.90;99.90
68139;DHT22;54940;50.842;4.410;2023-03-03T15:04:42;5.90;99.90
68139;DHT22;54940;50.842;4.410;2023-03-03T15:07:36;5.90;99.90
68139;DHT22;54940;50.842;4.410;2023-03-03T15:10:04;5.90;99.90
68139;DHT22;54940;50.842;4.410;2023-03-03T15:18:00;5.80;99.90
68139;DHT22;54940;50.842;4.410;2023-03-03T15:20:40;5.90;99.90
68139;DHT22;54940;50.842;4.410;2023-03-03T15:23:31;6.00;99.90
68139;DHT22;54940;50.842;4.410;2023-03-03T15:29:05;6.10;99.90
68139;DHT22;54940;50.842;4.410;2023-03-03T15:31:52;6.10;99.90
68139;DHT22;54940;50.842;4.410;2023-03-03T15:39:51;6.10;99.90
68139;DHT22;54940;50.842;4.410;2023-03-03T15:43:05;6.00;99.90
68139;DHT22;54940;50.842;4.410;2023-03-03T15:51:46;6.00;99.90
68139;DHT22;54940;50.842;4.410;2023-03-03T15:54:33;6.10;99.90
68139;DHT22;54940;50.842;4.410;2023-03-03T15:57:12;6.20;99.90
68139;DHT22;54940;50.842;4.410;2023-03-03T15:59:59;6.20;99.90
68139;DHT22;54940;50.842;4.410;2023-03-03T16:02:53;6.00;99.90
68139;DHT22;54940;50.842;4.410;2023-03-03T16:05:34;6.10;99.90
68139;DHT22;54940;50.842;4.410;2023-03-03T16:08:18;6.00;99.90
68139;DHT22;54940;50.842;4.410;2023-03-03T16:21:46;6.20;99.90
68139;DHT22;54940;50.842;4.410;2023-03-03T16:27:06;6.10;99.90
68139;DHT22;54940;50.842;4.410;2023-03-03T16:35:36;6.00;99.90
68139;DHT22;54940;50.842;4.410;2023-03-03T16:38:34;6.10;99.90
68139;DHT22;54940;50.842;4.410;2023-03-03T16:41:05;6.10;99.90
68139;DHT22;54940;50.842;4.410;2023-03-03T16:46:31;6.10;99.90
68139;DHT22;54940;50.842;4.410;2023-03-03T16:51:49;6.10;99.90
68139;DHT22;54940;50.842;4.410;2023-03-03T16:57:25;6.00;99.90
68139;DHT22;54940;50.842;4.410;2023-03-03T17:10:17;6.00;99.90
68139;DHT22;54940;50.842;4.410;2023-03-03T17:18:12;5.90;99.90
68139;DHT22;54940;50.842;4.410;2023-03-03T17:20:50;5.90;99.90
68139;DHT22;54940;50.842;4.410;2023-03-03T17:26:24;6.00;99.90
68139;DHT22;54940;50.842;4.410;2023-03-03T17:34:18;5.90;99.90
68139;DHT22;54940;50.842;4.410;2023-03-03T17:40:04;5.90;99.90
68139;DHT22;54940;50.842;4.410;2023-03-03T17:45:34;6.10;99.90
68139;DHT22;54940;50.842;4.410;2023-03-03T17:48:13;6.00;99.90
68139;DHT22;54940;50.842;4.410;2023-03-03T17:51:10;5.90;99.90
68139;DHT22;54940;50.842;4.410;2023-03-03T17:54:11;5.90;99.90
68139;DHT22;54940;50.842;4.410;2023-03-03T18:02:35;5.80;99.90
68139;DHT22;54940;50.842;4.410;2023-03-03T18:05:27;5.80;99.90
68139;DHT22;54940;50.842;4.410;2023-03-03T18:26:51;5.70;99.90
68139;DHT22;54940;50.842;4.410;2023-03-03T18:29:27;5.70;99.90
68139;DHT22;54940;50.842;4.410;2023-03-03T18:34:39;5.60;99.90
68139;DHT22;54940;50.842;4.410;2023-03-03T18:42:34;5.60;99.90
68139;DHT22;54940;50.842;4.410;2023-03-03T18:48:12;5.60;99.90
68139;DHT22;54940;50.842;4.410;2023-03-03T18:50:46;5.60;99.90
68139;DHT22;54940;50.842;4.410;2023-03-03T18:53:28;5.60;99.90
68139;DHT22;54940;50.842;4.410;2023-03-03T18:55:59;5.60;99.90
68139;DHT22;54940;50.842;4.410;2023-03-03T18:58:35;5.70;99.90
68139;DHT22;54940;50.842;4.410;2023-03-03T19:03:54;5.70;99.90
68139;DHT22;54940;50.842;4.410;2023-03-03T19:09:04;5.70;99.90
68139;DHT22;54940;50.842;4.410;2023-03-03T19:14:33;5.80;99.90
68139;DHT22;54940;50.842;4.410;2023-03-03T19:20:11;5.70;99.90
68139;DHT22;54940;50.842;4.410;2023-03-03T19:22:46;5.80;99.90
68139;DHT22;54940;50.842;4.410;2023-03-03T19:27:48;5.70;99.90
68139;DHT22;54940;50.842;4.410;2023-03-03T19:41:43;5.80;99.90
68139;DHT22;54940;50.842;4.410;2023-03-03T19:47:06;5.80;99.90
68139;DHT22;54940;50.842;4.410;2023-03-03T19:50:03;5.80;99.90
68139;DHT22;54940;50.842;4.410;2023-03-03T19:55:28;5.70;99.90
68139;DHT22;54940;50.842;4.410;2023-03-03T19:58:05;5.70;99.90
68139;DHT22;54940;50.842;4.410;2023-03-03T20:06:20;5.80;99.90
68139;DHT22;54940;50.842;4.410;2023-03-03T20:09:06;5.80;99.90
68139;DHT22;54940;50.842;4.410;2023-03-03T20:11:47;5.70;99.90
68139;DHT22;54940;50.842;4.410;2023-03-03T20:14:44;5.70;99.90
68139;DHT22;54940;50.842;4.410;2023-03-03T20:20:02;5.90;99.90
68139;DHT22;54940;50.842;4.410;2023-03-03T20:22:34;5.90;99.90
68139;DHT22;54940;50.842;4.410;2023-03-03T20:36:13;6.00;99.90
68139;DHT22;54940;50.842;4.410;2023-03-03T20:38:46;6.00;99.90
68139;DHT22;54940;50.842;4.410;2023-03-03T20:47:04;5.90;99.90
68139;DHT22;54940;50.842;4.410;2023-03-03T20:49:59;6.00;99.90
68139;DHT22;54940;50.842;4.410;2023-03-03T20:55:12;5.90;99.90
68139;DHT22;54940;50.842;4.410;2023-03-03T20:57:59;6.00;99.90
68139;DHT22;54940;50.842;4.410;2023-03-03T21:01:05;6.00;99.90
68139;DHT22;54940;50.842;4.410;2023-03-03T21:03:39;6.00;99.90
68139;DHT22;54940;50.842;4.410;2023-03-03T21:08:52;5.90;99.90
68139;DHT22;54940;50.842;4.410;2023-03-03T21:11:21;6.00;99.90
68139;DHT22;54940;50.842;4.410;2023-03-03T21:13:51;6.00;99.90
68139;DHT22;54940;50.842;4.410;2023-03-03T21:19:26;5.90;99.90
68139;DHT22;54940;50.842;4.410;2023-03-03T21:21:53;5.90;99.90
68139;DHT22;54940;50.842;4.410;2023-03-03T21:24:18;6.00;99.90
68139;DHT22;54940;50.842;4.410;2023-03-03T21:26:56;5.90;99.90
68139;DHT22;54940;50.842;4.410;2023-03-03T21:29:26;5.90;99.90
68139;DHT22;54940;50.842;4.410;2023-03-03T21:31:58;5.90;99.90
68139;DHT22;54940;50.842;4.410;2023-03-03T21:34:40;5.90;99.90
68139;DHT22;54940;50.842;4.410;2023-03-03T21:37:09;5.90;99.90
68139;DHT22;54940;50.842;4.410;2023-03-03T21:39:42;5.80;99.90
68139;DHT22;54940;50.842;4.410;2023-03-03T21:42:13;5.80;99.90
68139;DHT22;54940;50.842;4.410;2023-03-03T21:44:43;5.80;99.90
68139;DHT22;54940;50.842;4.410;2023-03-03T21:47:12;5.80;99.90
68139;DHT22;54940;50.842;4.410;2023-03-03T21:49:40;5.80;99.90
68139;DHT22;54940;50.842;4.410;2023-03-03T21:52:07;5.90;99.90
68139;DHT22;54940;50.842;4.410;2023-03-03T21:54:32;5.90;99.90
68139;DHT22;54940;50.842;4.410;2023-03-03T21:56:58;5.90;99.90
68139;DHT22;54940;50.842;4.410;2023-03-03T21:59:24;5.70;99.90
68139;DHT22;54940;50.842;4.410;2023-03-03T22:01:49;5.80;99.90
68139;DHT22;54940;50.842;4.410;2023-03-03T22:04:16;5.70;99.90
68139;DHT22;54940;50.842;4.410;2023-03-03T22:06:42;5.80;99.90
68139;DHT22;54940;50.842;4.410;2023-03-03T22:09:08;5.80;99.90
68139;DHT22;54940;50.842;4.410;2023-03-03T22:11:34;5.90;99.90
68139;DHT22;54940;50.842;4.410;2023-03-03T22:13:59;5.90;99.90
68139;DHT22;54940;50.842;4.410;2023-03-03T22:16:25;5.90;99.90
68139;DHT22;54940;50.842;4.410;2023-03-03T22:18:51;5.80;99.90
68139;DHT22;54940;50.842;4.410;2023-03-03T22:21:16;5.70;99.90
68139;DHT22;54940;50.842;4.410;2023-03-03T22:23:42;5.70;99.90
68139;DHT22;54940;50.842;4.410;2023-03-03T22:26:08;5.80;99.90
68139;DHT22;54940;50.842;4.410;2023-03-03T22:28:33;5.80;99.90
68139;DHT22;54940;50.842;4.410;2023-03-03T22:30:59;5.80;99.90
68139;DHT22;54940;50.842;4.410;2023-03-03T22:33:25;5.70;99.90
68139;DHT22;54940;50.842;4.410;2023-03-03T22:35:50;5.70;99.90
68139;DHT22;54940;50.842;4.410;2023-03-03T22:38:16;5.70;99.90